Time;durP1;ratioP1;P1;durP2;ratioP2;P2;SDS_P1;SDS_P2;PMS_P1;PMS_P2;Temp;Humidity;BMP_temperature;BMP_pressure;BME280_temperature;BME280_humidity;BME280_pressure;Samples;Min_cycle;Max_cycle;Signal;HPM_P1;HPM_P2
2023/12/17 00:02:20;;;;;;;;;33.50;30.25;;;;;;;;5081504;27;46219;-79
2023/12/17 00:04:46;;;;;;;;;45.50;39.50;;;;;;;;5081463;27;45483;-79
2023/12/17 00:07:11;;;;;;;;;39.75;37.75;;;;;;;;5081440;27;45239;-79
2023/12/17 00:09:36;;;;;;;;;45.50;39.75;;;;;;;;5081428;27;45313;-79
2023/12/17 00:12:01;;;;;;;;;38.75;34.25;;;;;;;;5080037;28;47985;-79
2023/12/17 00:14:26;;;;;;;;;37.75;32.25;;;;;;;;5079521;28;45377;-79
2023/12/17 00:16:51;;;;;;;;;38.25;36.75;;;;;;;;5079925;28;45334;-79
2023/12/17 00:19:16;;;;;;;;;35.50;32.75;;;;;;;;5096803;27;45873;-79
2023/12/17 00:21:42;;;;;;;;;38.00;35.25;;;;;;;;5079648;28;47616;-80
2023/12/17 00:24:07;;;;;;;;;44.75;39.75;;;;;;;;5097020;27;45365;-79
2023/12/17 00:26:32;;;;;;;;;40.00;34.50;;;;;;;;5081297;27;45353;-79
2023/12/17 00:28:58;;;;;;;;;37.50;33.00;;;;;;;;5096537;27;46146;-79
2023/12/17 00:31:23;;;;;;;;;39.00;36.00;;;;;;;;5081017;27;45368;-79
2023/12/17 00:33:48;;;;;;;;;45.25;37.50;;;;;;;;5080762;27;45310;-79
2023/12/17 00:36:13;;;;;;;;;42.25;38.75;;;;;;;;5096722;27;45360;-79
2023/12/17 00:38:38;;;;;;;;;41.25;37.00;;;;;;;;5080772;27;45321;-79
2023/12/17 00:41:04;;;;;;;;;46.25;38.75;;;;;;;;5096556;27;48527;-79
2023/12/17 00:43:29;;;;;;;;;45.25;39.00;;;;;;;;5080582;27;45300;-79
2023/12/17 00:45:54;;;;;;;;;41.00;39.25;;;;;;;;5080756;27;45310;-79
2023/12/17 00:48:19;;;;;;;;;50.50;44.25;;;;;;;;5080707;28;45472;-79
2023/12/17 00:50:45;;;;;;;;;40.75;35.25;;;;;;;;5096003;27;47178;-80
2023/12/17 00:53:10;;;;;;;;;32.00;32.00;;;;;;;;5080623;27;45431;-79
2023/12/17 00:55:35;;;;;;;;;43.00;38.75;;;;;;;;5096537;27;45283;-79
2023/12/17 00:58:00;;;;;;;;;51.75;42.75;;;;;;;;5080247;27;45303;-79
2023/12/17 01:00:26;;;;;;;;;54.25;44.00;;;;;;;;5079861;28;46201;-79
2023/12/17 01:02:51;;;;;;;;;49.75;42.75;;;;;;;;5061874;28;45414;-79
2023/12/17 01:05:16;;;;;;;;;57.00;46.25;;;;;;;;5079307;28;45380;-79
2023/12/17 01:07:41;;;;;;;;;53.50;43.75;;;;;;;;5062257;28;46375;-79
2023/12/17 01:10:07;;;;;;;;;38.75;35.25;;;;;;;;5080348;28;46451;-80
2023/12/17 01:12:32;;;;;;;;;37.75;36.75;;;;;;;;5079925;28;45413;-80
2023/12/17 01:14:57;;;;;;;;;42.50;37.50;;;;;;;;5080110;28;45324;-79
2023/12/17 01:17:22;;;;;;;;;37.75;36.50;;;;;;;;5080010;28;45442;-79
2023/12/17 01:19:47;;;;;;;;;37.75;33.25;;;;;;;;5077873;28;47912;-79
2023/12/17 01:22:13;;;;;;;;;21.50;21.25;;;;;;;;5079926;28;45142;-79
2023/12/17 01:24:39;;;;;;;;;29.50;27.50;;;;;;;;5080439;28;45377;-79
2023/12/17 01:27:04;;;;;;;;;36.25;32.50;;;;;;;;5079836;28;45519;-79
2023/12/17 01:29:29;;;;;;;;;31.75;30.25;;;;;;;;5078424;28;48379;-79
2023/12/17 01:31:57;;;;;;;;;29.00;27.00;;;;;;;;5080044;28;45357;-79
2023/12/17 01:34:22;;;;;;;;;34.25;31.25;;;;;;;;5079953;28;45298;-79
2023/12/17 01:36:49;;;;;;;;;35.75;31.00;;;;;;;;5078109;28;47176;-79
2023/12/17 01:39:14;;;;;;;;;29.50;27.75;;;;;;;;5079758;28;46205;-79
2023/12/17 01:41:39;;;;;;;;;25.00;25.00;;;;;;;;5078520;28;45293;-79
2023/12/17 01:44:04;;;;;;;;;28.00;26.33;;;;;;;;5077368;28;45325;-79
2023/12/17 01:46:29;;;;;;;;;27.25;26.00;;;;;;;;5077767;28;46157;-79
2023/12/17 01:48:55;;;;;;;;;26.50;25.00;;;;;;;;5079393;28;45472;-79
2023/12/17 01:51:20;;;;;;;;;25.25;23.25;;;;;;;;5078073;28;46042;-79
2023/12/17 01:53:46;;;;;;;;;8.33;8.33;;;;;;;;5078473;28;45333;-79
2023/12/17 01:56:12;;;;;;;;;25.25;24.50;;;;;;;;5079659;28;45389;-79
2023/12/17 01:58:37;;;;;;;;;21.00;17.33;;;;;;;;5079189;28;45236;-79
2023/12/17 02:01:03;;;;;;;;;25.00;24.75;;;;;;;;5079650;28;45222;-79
2023/12/17 02:03:29;;;;;;;;;15.67;15.67;;;;;;;;5095369;27;45294;-79
2023/12/17 02:05:54;;;;;;;;;24.50;22.75;;;;;;;;5079505;28;45495;-79
2023/12/17 02:08:19;;;;;;;;;27.67;26.33;;;;;;;;5095385;27;46900;-79
2023/12/17 02:10:44;;;;;;;;;21.33;18.67;;;;;;;;5079375;28;45224;-79
2023/12/17 02:13:10;;;;;;;;;24.00;22.50;;;;;;;;5080528;27;45498;-79
2023/12/17 02:15:38;;;;;;;;;26.50;23.00;;;;;;;;5082765;27;45338;-80
2023/12/17 02:18:03;;;;;;;;;25.25;22.75;;;;;;;;5098737;27;46995;-79
2023/12/17 02:20:28;;;;;;;;;28.25;24.75;;;;;;;;5082917;28;45294;-79
2023/12/17 02:22:56;;;;;;;;;27.75;25.25;;;;;;;;5098859;27;45326;-80
2023/12/17 02:25:21;;;;;;;;;27.00;23.25;;;;;;;;5083067;28;45527;-79
2023/12/17 02:27:46;;;;;;;;;17.25;16.75;;;;;;;;5098234;27;46961;-80
2023/12/17 02:30:11;;;;;;;;;22.00;21.67;;;;;;;;5082947;27;45157;-79
2023/12/17 02:32:36;;;;;;;;;26.50;23.50;;;;;;;;5081525;28;45412;-79
2023/12/17 02:35:02;;;;;;;;;21.33;21.00;;;;;;;;5082611;27;45532;-80
2023/12/17 02:37:27;;;;;;;;;23.00;19.75;;;;;;;;5098418;27;47783;-79
2023/12/17 02:39:52;;;;;;;;;19.67;19.67;;;;;;;;5098613;27;46079;-79
2023/12/17 02:42:18;;;;;;;;;22.67;22.67;;;;;;;;5098330;27;45233;-79
2023/12/17 02:44:43;;;;;;;;;21.00;18.67;;;;;;;;5082720;28;45399;-79
2023/12/17 02:47:08;;;;;;;;;16.67;16.67;;;;;;;;5082725;27;46498;-79
2023/12/17 02:49:35;;;;;;;;;17.67;16.00;;;;;;;;5082172;28;45433;-79
2023/12/17 02:52:00;;;;;;;;;20.33;20.00;;;;;;;;5081327;28;45271;-79
2023/12/17 02:54:25;;;;;;;;;24.00;17.00;;;;;;;;5098290;27;47243;-79
2023/12/17 02:56:53;;;;;;;;;18.33;18.33;;;;;;;;5082528;27;45495;-80
2023/12/17 02:59:18;;;;;;;;;21.67;20.00;;;;;;;;5063991;28;45304;-79
2023/12/17 03:01:43;;;;;;;;;20.75;18.00;;;;;;;;5081024;28;45501;-79
2023/12/17 03:04:12;;;;;;;;;21.00;18.33;;;;;;;;5064073;28;46109;-79
2023/12/17 03:06:38;;;;;;;;;24.00;21.33;;;;;;;;5064173;28;47162;-79
2023/12/17 03:09:04;;;;;;;;;18.67;17.00;;;;;;;;5063737;28;45249;-79
2023/12/17 03:11:29;;;;;;;;;13.33;13.33;;;;;;;;5080885;28;45278;-79
2023/12/17 03:13:55;;;;;;;;;20.67;18.67;;;;;;;;5080277;28;45468;-79
2023/12/17 03:16:20;;;;;;;;;24.67;20.67;;;;;;;;5079692;28;47933;-79
2023/12/17 03:18:46;;;;;;;;;20.67;20.67;;;;;;;;5063783;28;45259;-79
2023/12/17 03:21:11;;;;;;;;;19.33;19.33;;;;;;;;5080999;28;45361;-79
2023/12/17 03:23:36;;;;;;;;;20.00;18.67;;;;;;;;5063213;28;45815;-79
2023/12/17 03:26:02;;;;;;;;;16.67;12.67;;;;;;;;5082095;28;45508;-79
2023/12/17 03:28:27;;;;;;;;;25.25;21.50;;;;;;;;5081756;28;45320;-79
2023/12/17 03:30:52;;;;;;;;;20.50;20.50;;;;;;;;5082066;28;45386;-79
2023/12/17 03:33:18;;;;;;;;;22.00;20.25;;;;;;;;5081816;28;45377;-79
2023/12/17 03:35:43;;;;;;;;;17.33;17.33;;;;;;;;5080274;28;46954;-79
2023/12/17 03:38:08;;;;;;;;;20.33;19.00;;;;;;;;5081186;28;45414;-79
2023/12/17 03:40:34;;;;;;;;;22.25;20.00;;;;;;;;5078900;28;45400;-79
2023/12/17 03:43:00;;;;;;;;;19.33;18.67;;;;;;;;5078441;28;46369;-78
2023/12/17 03:45:25;;;;;;;;;17.50;17.50;;;;;;;;5080572;28;47753;-79
2023/12/17 03:47:50;;;;;;;;;21.00;21.00;;;;;;;;5081621;28;45332;-79
2023/12/17 03:50:16;;;;;;;;;19.25;18.00;;;;;;;;5081442;28;45337;-79
2023/12/17 03:52:41;;;;;;;;;19.67;18.33;;;;;;;;5081598;28;45560;-79
2023/12/17 03:55:07;;;;;;;;;18.33;18.33;;;;;;;;5081361;28;46085;-79
2023/12/17 03:57:32;;;;;;;;;20.67;15.67;;;;;;;;5068841;28;46019;-79
2023/12/17 03:59:57;;;;;;;;;14.00;12.67;;;;;;;;5081833;27;45215;-79
2023/12/17 04:02:22;;;;;;;;;21.75;19.75;;;;;;;;5081500;27;45547;-79
2023/12/17 04:04:47;;;;;;;;;18.67;18.67;;;;;;;;5081275;27;46654;-79
2023/12/17 04:07:13;;;;;;;;;20.00;20.00;;;;;;;;5081505;27;45341;-79
2023/12/17 04:09:38;;;;;;;;;20.33;19.33;;;;;;;;5081578;27;45555;-80
2023/12/17 04:12:03;;;;;;;;;17.67;17.67;;;;;;;;5096729;27;46453;-79
2023/12/17 04:14:28;;;;;;;;;18.67;17.33;;;;;;;;5081213;27;47417;-79
2023/12/17 04:16:53;;;;;;;;;17.67;16.33;;;;;;;;5097197;27;46188;-79
2023/12/17 04:19:19;;;;;;;;;23.33;21.33;;;;;;;;5081305;27;45330;-79
2023/12/17 04:21:44;;;;;;;;;21.00;19.00;;;;;;;;5081194;27;45251;-79
2023/12/17 04:24:09;;;;;;;;;15.33;15.33;;;;;;;;5081216;27;45562;-79
2023/12/17 04:26:34;;;;;;;;;20.67;20.00;;;;;;;;5081338;27;45273;-79
2023/12/17 04:28:59;;;;;;;;;21.67;16.00;;;;;;;;5081060;27;45211;-79
2023/12/17 04:31:24;;;;;;;;;14.50;11.00;;;;;;;;5096648;27;46272;-79
2023/12/17 04:33:50;;;;;;;;;20.25;20.00;;;;;;;;5080798;27;46004;-79
2023/12/17 04:36:15;;;;;;;;;22.67;19.67;;;;;;;;5080091;27;45153;-79
2023/12/17 04:38:41;;;;;;;;;22.67;22.67;;;;;;;;5080907;28;45216;-79
2023/12/17 04:41:06;;;;;;;;;19.00;18.33;;;;;;;;5080759;27;45391;-79
2023/12/17 04:43:32;;;;;;;;;31.25;29.00;;;;;;;;5080428;28;45264;-79
2023/12/17 04:45:57;;;;;;;;;29.25;27.75;;;;;;;;5096443;27;45385;-79
2023/12/17 04:48:22;;;;;;;;;30.50;28.50;;;;;;;;5080612;27;45251;-79
2023/12/17 04:50:48;;;;;;;;;31.25;27.25;;;;;;;;5078911;28;46727;-79
2023/12/17 04:53:13;;;;;;;;;22.00;21.00;;;;;;;;5080373;28;46406;-79
2023/12/17 04:55:38;;;;;;;;;11.25;10.25;;;;;;;;5079389;28;45337;-79
2023/12/17 04:58:03;;;;;;;;;34.00;31.75;;;;;;;;5080488;28;45303;-79
2023/12/17 05:00:28;;;;;;;;;38.50;36.50;;;;;;;;5080605;27;45248;-79
2023/12/17 05:02:54;;;;;;;;;28.25;28.25;;;;;;;;5096207;27;47080;-79
2023/12/17 05:05:19;;;;;;;;;27.50;24.50;;;;;;;;5080410;27;45341;-79
2023/12/17 05:07:44;;;;;;;;;32.25;28.00;;;;;;;;5080490;27;45542;-79
2023/12/17 05:10:10;;;;;;;;;28.25;26.25;;;;;;;;5080461;27;45438;-79
2023/12/17 05:12:35;;;;;;;;;27.75;25.00;;;;;;;;5095851;27;47842;-79
2023/12/17 05:15:00;;;;;;;;;21.75;18.25;;;;;;;;5079940;27;45309;-79
2023/12/17 05:17:25;;;;;;;;;33.75;28.75;;;;;;;;5080479;27;45316;-79
2023/12/17 05:19:50;;;;;;;;;34.50;29.00;;;;;;;;5076010;28;46309;-79
2023/12/17 05:22:15;;;;;;;;;25.50;25.50;;;;;;;;5061228;28;48099;-79
2023/12/17 05:24:41;;;;;;;;;21.50;19.50;;;;;;;;5079898;28;45449;-79
2023/12/17 05:27:06;;;;;;;;;22.00;20.00;;;;;;;;5080181;28;45583;-79
2023/12/17 05:29:31;;;;;;;;;18.50;18.50;;;;;;;;5080271;28;45219;-79
2023/12/17 05:31:56;;;;;;;;;15.33;15.33;;;;;;;;5061858;28;47337;-79
2023/12/17 05:34:21;;;;;;;;;18.00;16.00;;;;;;;;5078551;28;45291;-79
2023/12/17 05:36:47;;;;;;;;;19.33;17.67;;;;;;;;5078666;28;45573;-78
2023/12/17 05:39:12;;;;;;;;;19.00;18.67;;;;;;;;5060064;28;47045;-79
2023/12/17 05:41:37;;;;;;;;;16.33;14.67;;;;;;;;5079856;28;45702;-78
2023/12/17 05:44:02;;;;;;;;;19.25;17.25;;;;;;;;5080080;28;45224;-79
2023/12/17 05:46:27;;;;;;;;;16.67;15.00;;;;;;;;5061670;28;45368;-79
2023/12/17 05:48:52;;;;;;;;;22.00;17.33;;;;;;;;5079579;28;45292;-78
2023/12/17 05:51:18;;;;;;;;;15.67;14.33;;;;;;;;5078052;28;47177;-79
2023/12/17 05:53:43;;;;;;;;;20.33;19.67;;;;;;;;5078062;28;45324;-79
2023/12/17 05:56:08;;;;;;;;;19.33;18.00;;;;;;;;5077248;28;45293;-79
2023/12/17 05:58:33;;;;;;;;;20.25;18.75;;;;;;;;5092529;27;46289;-79
2023/12/17 06:00:59;;;;;;;;;19.75;16.00;;;;;;;;5079491;27;45558;-79
2023/12/17 06:03:24;;;;;;;;;18.75;18.50;;;;;;;;5079696;27;45252;-78
2023/12/17 06:05:49;;;;;;;;;25.75;25.00;;;;;;;;5079762;27;45248;-79
2023/12/17 06:08:14;;;;;;;;;34.50;32.00;;;;;;;;5079616;28;45160;-79
2023/12/17 06:10:40;;;;;;;;;26.75;25.25;;;;;;;;5079670;27;45498;-79
2023/12/17 06:13:05;;;;;;;;;31.75;29.25;;;;;;;;5079504;27;45189;-78
2023/12/17 06:15:30;;;;;;;;;33.25;31.50;;;;;;;;5079540;27;45224;-79
2023/12/17 06:17:55;;;;;;;;;37.25;32.50;;;;;;;;5079513;27;45683;-79
2023/12/17 06:20:20;;;;;;;;;28.00;25.75;;;;;;;;5079581;27;46301;-79
2023/12/17 06:22:46;;;;;;;;;31.00;27.00;;;;;;;;5095009;27;45505;-79
2023/12/17 06:25:11;;;;;;;;;25.75;22.25;;;;;;;;5078260;28;45183;-79
2023/12/17 06:27:36;;;;;;;;;22.00;21.75;;;;;;;;5094864;27;45887;-79
2023/12/17 06:30:02;;;;;;;;;21.00;19.75;;;;;;;;5095117;27;47279;-79
2023/12/17 06:32:27;;;;;;;;;22.67;22.67;;;;;;;;5079458;27;45325;-79
2023/12/17 06:34:52;;;;;;;;;22.00;21.00;;;;;;;;5079196;27;45495;-79
2023/12/17 06:37:17;;;;;;;;;16.00;15.00;;;;;;;;5079354;27;45259;-79
2023/12/17 06:39:42;;;;;;;;;19.25;19.25;;;;;;;;5095016;27;47955;-79
2023/12/17 06:42:08;;;;;;;;;19.00;18.00;;;;;;;;5094609;27;45596;-79
2023/12/17 06:44:34;;;;;;;;;14.00;13.00;;;;;;;;5079529;28;45365;-78
2023/12/17 06:46:59;;;;;;;;;19.00;17.33;;;;;;;;5079078;27;45337;-77
2023/12/17 06:49:24;;;;;;;;;20.00;17.33;;;;;;;;5078823;27;45538;-79
2023/12/17 06:51:49;;;;;;;;;19.00;16.67;;;;;;;;5079227;27;45347;-78
2023/12/17 06:54:14;;;;;;;;;18.33;17.00;;;;;;;;5077817;28;45604;-79
2023/12/17 06:56:40;;;;;;;;;14.33;14.33;;;;;;;;5077629;28;45910;-79
2023/12/17 06:59:05;;;;;;;;;19.67;17.33;;;;;;;;5078277;28;48245;-78
2023/12/17 07:01:30;;;;;;;;;18.33;16.33;;;;;;;;5064138;28;45394;-78
2023/12/17 07:03:55;;;;;;;;;16.00;13.67;;;;;;;;5064224;28;45291;-78
2023/12/17 07:06:21;;;;;;;;;11.67;11.67;;;;;;;;5064019;28;46088;-78
2023/12/17 07:08:48;;;;;;;;;21.33;17.00;;;;;;;;5082408;28;45335;-79
2023/12/17 07:11:13;;;;;;;;;27.75;24.50;;;;;;;;5080992;28;45247;-79
2023/12/17 07:13:38;;;;;;;;;22.67;21.00;;;;;;;;5081739;28;45287;-77
2023/12/17 07:16:04;;;;;;;;;12.67;11.67;;;;;;;;5063157;28;47310;-77
2023/12/17 07:18:29;;;;;;;;;18.67;16.00;;;;;;;;5081332;28;45549;-78
2023/12/17 07:20:54;;;;;;;;;33.75;33.00;;;;;;;;5099729;27;45165;-79
2023/12/17 07:23:24;;;;;;;;;15.00;13.67;;;;;;;;5103028;27;45192;-79
2023/12/17 07:25:49;;;;;;;;;18.67;16.33;;;;;;;;5101255;27;46198;-79
2023/12/17 07:28:14;;;;;;;;;33.50;29.00;;;;;;;;5102277;27;45569;-79
2023/12/17 07:30:39;;;;;;;;;35.00;31.00;;;;;;;;5104035;27;45241;-80
2023/12/17 07:33:06;;;;;;;;;26.67;25.00;;;;;;;;5104000;27;45370;-80
2023/12/17 07:35:31;;;;;;;;;15.67;13.33;;;;;;;;5103754;27;45458;-80
2023/12/17 07:37:56;;;;;;;;;10.33;8.67;;;;;;;;5105082;27;45469;-80
2023/12/17 07:40:21;;;;;;;;;13.33;10.33;;;;;;;;5103212;27;45306;-80
2023/12/17 07:42:46;;;;;;;;;13.67;12.00;;;;;;;;5106611;27;45280;-80
2023/12/17 07:45:12;;;;;;;;;13.33;11.00;;;;;;;;5107746;27;45944;-80
2023/12/17 07:47:37;;;;;;;;;14.33;12.00;;;;;;;;5102057;27;47439;-80
2023/12/17 07:50:02;;;;;;;;;15.67;13.67;;;;;;;;5098287;27;45705;-80
2023/12/17 07:52:29;;;;;;;;;14.67;12.33;;;;;;;;5087799;28;45262;-80
2023/12/17 07:54:56;;;;;;;;;14.33;13.67;;;;;;;;5103529;27;46326;-80
2023/12/17 07:57:21;;;;;;;;;14.00;12.67;;;;;;;;5091545;27;47296;-80
2023/12/17 07:59:50;;;;;;;;;15.33;13.00;;;;;;;;5063181;28;45315;-79
2023/12/17 08:02:15;;;;;;;;;15.67;15.33;;;;;;;;5062325;28;45240;-79
2023/12/17 08:04:41;;;;;;;;;10.67;10.00;;;;;;;;5076355;28;46265;-79
2023/12/17 08:07:07;;;;;;;;;13.33;12.00;;;;;;;;5061069;28;45279;-79
2023/12/17 08:09:35;;;;;;;;;14.33;13.00;;;;;;;;5061377;28;45268;-78
2023/12/17 08:12:00;;;;;;;;;14.33;12.33;;;;;;;;5060595;28;45307;-79
2023/12/17 08:14:25;;;;;;;;;11.33;11.33;;;;;;;;5060992;28;45244;-79
2023/12/17 08:16:50;;;;;;;;;10.00;9.33;;;;;;;;5060903;28;45364;-79
2023/12/17 08:19:15;;;;;;;;;13.00;11.00;;;;;;;;5078233;28;45223;-80
2023/12/17 08:21:40;;;;;;;;;11.67;11.67;;;;;;;;5062552;28;45383;-80
2023/12/17 08:24:06;;;;;;;;;12.67;10.67;;;;;;;;5062331;28;45216;-79
2023/12/17 08:26:31;;;;;;;;;16.67;14.33;;;;;;;;5075944;28;47145;-79
2023/12/17 08:28:57;;;;;;;;;20.00;19.00;;;;;;;;5060646;28;45333;-80
2023/12/17 08:31:22;;;;;;;;;31.25;29.00;;;;;;;;5059781;28;45760;-79
2023/12/17 08:33:51;;;;;;;;;24.25;23.50;;;;;;;;5076696;28;46371;-78
2023/12/17 08:36:16;;;;;;;;;23.33;21.67;;;;;;;;5060432;28;46078;-78
2023/12/17 08:38:45;;;;;;;;;23.33;20.00;;;;;;;;5061482;28;45298;-79
2023/12/17 08:41:10;;;;;;;;;16.33;16.33;;;;;;;;5063482;28;45276;-79
2023/12/17 08:43:36;;;;;;;;;16.00;15.00;;;;;;;;5063988;28;45174;-79
2023/12/17 08:46:01;;;;;;;;;17.33;15.00;;;;;;;;5063392;28;46697;-79
2023/12/17 08:48:26;;;;;;;;;16.00;15.33;;;;;;;;5059328;28;45370;-80
2023/12/17 08:50:51;;;;;;;;;17.67;15.67;;;;;;;;5076815;28;45399;-79
2023/12/17 08:53:19;;;;;;;;;17.67;16.00;;;;;;;;5079649;28;47250;-79
2023/12/17 08:55:44;;;;;;;;;19.33;17.00;;;;;;;;5079208;28;48042;-78
2023/12/17 08:58:09;;;;;;;;;16.00;16.00;;;;;;;;5079000;28;45370;-79
2023/12/17 09:00:35;;;;;;;;;17.00;17.00;;;;;;;;5049207;28;45264;-79
2023/12/17 09:03:00;;;;;;;;;14.00;13.33;;;;;;;;5080306;28;45679;-79
2023/12/17 09:05:25;;;;;;;;;16.67;16.00;;;;;;;;5079733;28;45358;-79
2023/12/17 09:07:50;;;;;;;;;13.00;12.33;;;;;;;;5062741;28;45371;-79
2023/12/17 09:10:15;;;;;;;;;17.33;17.00;;;;;;;;5081032;28;45399;-78
2023/12/17 09:12:40;;;;;;;;;16.00;14.00;;;;;;;;5082255;28;45545;-78
2023/12/17 09:15:06;;;;;;;;;16.33;15.33;;;;;;;;5078521;28;47260;-78
2023/12/17 09:17:31;;;;;;;;;17.33;12.33;;;;;;;;5080292;28;45290;-78
2023/12/17 09:19:56;;;;;;;;;15.00;13.33;;;;;;;;5080497;28;45323;-78
2023/12/17 09:22:21;;;;;;;;;16.33;14.00;;;;;;;;5079641;28;45455;-78
2023/12/17 09:24:46;;;;;;;;;12.00;12.00;;;;;;;;5081242;28;45299;-79
2023/12/17 09:27:11;;;;;;;;;17.00;15.00;;;;;;;;5080230;28;45439;-81
2023/12/17 09:29:37;;;;;;;;;13.00;12.33;;;;;;;;5062804;28;45289;-80
2023/12/17 09:32:02;;;;;;;;;15.67;12.00;;;;;;;;5079567;28;45246;-81
2023/12/17 09:34:27;;;;;;;;;17.67;15.33;;;;;;;;5079358;28;47856;-80
2023/12/17 09:36:52;;;;;;;;;15.00;13.67;;;;;;;;5061714;28;45847;-80
2023/12/17 09:39:18;;;;;;;;;15.33;15.33;;;;;;;;5079515;28;45142;-79
2023/12/17 09:41:43;;;;;;;;;15.33;13.67;;;;;;;;5077991;28;47532;-79
2023/12/17 09:44:08;;;;;;;;;16.00;16.00;;;;;;;;5080316;27;45994;-79
2023/12/17 09:46:35;;;;;;;;;16.00;16.00;;;;;;;;5079517;28;45216;-79
2023/12/17 09:49:00;;;;;;;;;17.33;15.67;;;;;;;;5062086;28;45297;-79
2023/12/17 09:51:27;;;;;;;;;19.67;16.67;;;;;;;;5064659;28;45379;-78
2023/12/17 09:53:53;;;;;;;;;23.33;20.67;;;;;;;;5071664;28;46238;-78
2023/12/17 09:56:18;;;;;;;;;17.00;17.00;;;;;;;;5079620;27;45362;-79
2023/12/17 09:58:45;;;;;;;;;20.67;19.00;;;;;;;;5085726;27;45460;-79
2023/12/17 10:01:10;;;;;;;;;18.67;16.67;;;;;;;;5066263;28;45750;-79
2023/12/17 10:03:35;;;;;;;;;18.67;16.00;;;;;;;;5078621;28;46225;-80
2023/12/17 10:06:02;;;;;;;;;15.67;14.33;;;;;;;;5079044;28;45355;-80
2023/12/17 10:08:27;;;;;;;;;18.00;16.00;;;;;;;;5079411;28;45225;-80
2023/12/17 10:10:52;;;;;;;;;14.67;14.67;;;;;;;;5078678;28;45508;-80
2023/12/17 10:13:22;;;;;;;;;21.67;18.67;;;;;;;;5079243;28;46647;-79
2023/12/17 10:15:51;;;;;;;;;15.67;14.67;;;;;;;;5060745;28;45521;-80
2023/12/17 10:18:16;;;;;;;;;18.33;15.33;;;;;;;;5070952;28;45356;-82
2023/12/17 10:20:43;;;;;;;;;26.00;16.67;;;;;;;;5079077;28;45474;-79
2023/12/17 10:23:08;;;;;;;;;21.00;21.00;;;;;;;;5079804;28;45463;-80
2023/12/17 10:25:33;;;;;;;;;19.67;18.67;;;;;;;;5078212;28;45325;-82
2023/12/17 10:27:59;;;;;;;;;16.00;13.33;;;;;;;;5077433;28;45478;-80
2023/12/17 10:30:26;;;;;;;;;20.33;17.33;;;;;;;;5079186;28;45326;-79
2023/12/17 10:32:52;;;;;;;;;14.67;14.67;;;;;;;;5078684;28;46011;-80
2023/12/17 10:35:17;;;;;;;;;20.00;15.67;;;;;;;;5063089;28;45358;-79
2023/12/17 10:37:42;;;;;;;;;18.00;16.00;;;;;;;;5082224;28;45297;-79
2023/12/17 10:40:11;;;;;;;;;20.67;20.00;;;;;;;;5082090;28;45477;-79
2023/12/17 10:42:37;;;;;;;;;22.00;20.33;;;;;;;;5081932;28;46078;-79
2023/12/17 10:45:04;;;;;;;;;19.67;16.67;;;;;;;;5081678;28;45255;-80
2023/12/17 10:47:30;;;;;;;;;18.33;17.67;;;;;;;;5063903;28;45367;-81
2023/12/17 10:49:56;;;;;;;;;24.33;21.00;;;;;;;;5081965;28;45331;-79
2023/12/17 10:52:22;;;;;;;;;26.33;22.67;;;;;;;;5082188;28;45494;-81
2023/12/17 10:54:47;;;;;;;;;19.00;16.67;;;;;;;;5082288;28;45357;-80
2023/12/17 10:57:15;;;;;;;;;16.67;15.00;;;;;;;;5083902;27;45339;-79
2023/12/17 10:59:44;;;;;;;;;26.33;22.00;;;;;;;;5098237;27;46409;-80
2023/12/17 11:02:11;;;;;;;;;19.33;19.33;;;;;;;;5082028;27;45234;-80
2023/12/17 11:04:36;;;;;;;;;28.67;26.00;;;;;;;;5063455;28;45368;-79
2023/12/17 11:07:02;;;;;;;;;27.33;22.00;;;;;;;;5082025;28;45369;-80
2023/12/17 11:09:27;;;;;;;;;21.67;18.00;;;;;;;;5063633;28;46477;-79
2023/12/17 11:11:52;;;;;;;;;26.33;26.33;;;;;;;;5081851;28;45812;-79
2023/12/17 11:14:18;;;;;;;;;19.00;16.33;;;;;;;;5081516;28;45347;-79
2023/12/17 11:16:43;;;;;;;;;32.00;28.67;;;;;;;;5061568;28;45442;-80
2023/12/17 11:19:11;;;;;;;;;22.00;21.00;;;;;;;;5068649;28;47460;-80
2023/12/17 11:21:36;;;;;;;;;14.67;12.00;;;;;;;;5079646;28;47133;-79
2023/12/17 11:24:02;;;;;;;;;21.00;20.00;;;;;;;;5081909;28;45225;-80
2023/12/17 11:26:27;;;;;;;;;16.67;16.67;;;;;;;;5063576;28;45301;-79
2023/12/17 11:28:52;;;;;;;;;19.00;19.00;;;;;;;;5081418;28;45441;-79
2023/12/17 11:31:18;;;;;;;;;16.33;15.33;;;;;;;;5081730;28;45456;-81
2023/12/17 11:33:43;;;;;;;;;17.00;17.00;;;;;;;;5081284;28;45238;-81
2023/12/17 11:36:10;;;;;;;;;16.67;16.67;;;;;;;;5081721;28;45271;-80
2023/12/17 11:38:35;;;;;;;;;21.33;18.67;;;;;;;;5081528;28;45330;-80
2023/12/17 11:41:00;;;;;;;;;17.67;16.33;;;;;;;;5081499;28;45312;-78
2023/12/17 11:43:26;;;;;;;;;16.33;16.00;;;;;;;;5081352;28;45256;-79
2023/12/17 11:45:51;;;;;;;;;18.33;17.00;;;;;;;;5081256;28;45225;-79
2023/12/17 11:48:17;;;;;;;;;19.33;17.67;;;;;;;;5081474;28;45335;-81
2023/12/17 11:50:48;;;;;;;;;21.00;19.33;;;;;;;;5063026;28;47606;-80
2023/12/17 11:53:14;;;;;;;;;17.67;17.67;;;;;;;;5062786;28;45252;-83
2023/12/17 11:55:40;;;;;;;;;18.00;18.00;;;;;;;;5080753;28;45168;-83
2023/12/17 11:58:05;;;;;;;;;10.67;10.00;;;;;;;;5080900;28;45808;-83
2023/12/17 12:00:31;;;;;;;;;23.67;23.67;;;;;;;;5096985;27;48293;-84
2023/12/17 12:02:56;;;;;;;;;22.00;21.33;;;;;;;;5081556;27;45224;-85
2023/12/17 12:05:21;;;;;;;;;23.33;22.67;;;;;;;;5079556;28;45549;-80
2023/12/17 12:07:52;;;;;;;;;20.67;18.67;;;;;;;;5080607;27;45426;-81
2023/12/17 12:10:17;;;;;;;;;17.00;17.00;;;;;;;;5080532;28;46938;-82
2023/12/17 12:12:42;;;;;;;;;21.00;20.00;;;;;;;;5080805;27;45386;-84
2023/12/17 12:15:08;;;;;;;;;31.33;30.33;;;;;;;;5081119;28;45309;-83
2023/12/17 12:17:40;;;;;;;;;30.00;25.00;;;;;;;;5062528;28;46038;-79
2023/12/17 12:20:10;;;;;;;;;27.00;25.00;;;;;;;;5078965;28;45382;-80
2023/12/17 12:22:37;;;;;;;;;25.33;21.00;;;;;;;;5061704;28;45324;-80
2023/12/17 12:25:03;;;;;;;;;23.00;22.67;;;;;;;;5061758;28;45387;-79
2023/12/17 12:27:28;;;;;;;;;21.67;18.33;;;;;;;;5080615;28;45496;-80
2023/12/17 12:29:53;;;;;;;;;21.33;21.33;;;;;;;;5080700;28;45723;-80
2023/12/17 12:32:31;;;;;;;;;24.33;22.33;;;;;;;;5080672;27;45609;-80
2023/12/17 12:34:57;;;;;;;;;22.33;21.33;;;;;;;;5080266;28;45224;-80
2023/12/17 12:37:37;;;;;;;;;24.67;23.00;;;;;;;;5080636;28;45145;-80
2023/12/17 12:40:04;;;;;;;;;24.67;19.67;;;;;;;;5080136;28;45377;-80
2023/12/17 12:42:31;;;;;;;;;19.00;18.33;;;;;;;;5080069;28;45394;-80
2023/12/17 12:44:56;;;;;;;;;21.67;18.67;;;;;;;;5061924;28;45363;-80
2023/12/17 12:47:22;;;;;;;;;18.67;17.33;;;;;;;;5062190;28;46979;-80
2023/12/17 12:49:47;;;;;;;;;20.67;20.00;;;;;;;;5079400;28;46038;-79
2023/12/17 12:52:12;;;;;;;;;22.00;19.33;;;;;;;;5080057;28;45368;-81
2023/12/17 12:54:38;;;;;;;;;21.67;21.00;;;;;;;;5078684;28;45532;-82
2023/12/17 12:57:03;;;;;;;;;26.00;23.33;;;;;;;;5079063;28;45517;-81
2023/12/17 12:59:28;;;;;;;;;22.67;22.67;;;;;;;;5080204;27;46215;-81
2023/12/17 13:01:54;;;;;;;;;34.33;30.00;;;;;;;;5080079;28;45337;-81
2023/12/17 13:04:19;;;;;;;;;28.00;25.00;;;;;;;;5079911;28;45171;-81
2023/12/17 13:06:44;;;;;;;;;24.67;24.00;;;;;;;;5061884;28;46093;-80
2023/12/17 13:09:11;;;;;;;;;32.33;29.33;;;;;;;;5053314;28;47840;-80
2023/12/17 13:11:36;;;;;;;;;26.33;24.33;;;;;;;;5079626;28;45299;-80
2023/12/17 13:14:03;;;;;;;;;29.00;26.67;;;;;;;;5079857;28;45295;-80
2023/12/17 13:16:28;;;;;;;;;25.33;25.00;;;;;;;;5078104;28;46331;-80
2023/12/17 13:18:54;;;;;;;;;26.00;23.00;;;;;;;;5079577;28;45401;-80
2023/12/17 13:21:19;;;;;;;;;25.00;23.00;;;;;;;;5079760;28;45410;-80
2023/12/17 13:23:45;;;;;;;;;23.00;22.00;;;;;;;;5079927;28;45270;-80
2023/12/17 13:26:10;;;;;;;;;24.33;22.00;;;;;;;;5077757;28;46371;-80
2023/12/17 13:28:36;;;;;;;;;23.67;23.67;;;;;;;;5079592;28;45279;-80
2023/12/17 13:31:03;;;;;;;;;27.00;24.33;;;;;;;;5079703;27;45420;-80
2023/12/17 13:33:28;;;;;;;;;23.67;23.00;;;;;;;;5079551;28;45307;-80
2023/12/17 13:35:53;;;;;;;;;27.33;25.67;;;;;;;;5078338;28;45382;-80
2023/12/17 13:38:19;;;;;;;;;28.33;25.00;;;;;;;;5079586;28;45228;-80
2023/12/17 13:40:44;;;;;;;;;27.67;25.33;;;;;;;;5069249;28;45322;-80
2023/12/17 13:43:09;;;;;;;;;26.67;24.33;;;;;;;;5077847;28;45365;-80
2023/12/17 13:45:35;;;;;;;;;24.00;23.00;;;;;;;;5051951;28;46126;-80
2023/12/17 13:48:00;;;;;;;;;28.67;26.33;;;;;;;;5070350;28;45320;-80
2023/12/17 13:50:25;;;;;;;;;29.67;28.00;;;;;;;;5078862;28;45387;-80
2023/12/17 13:52:50;;;;;;;;;27.33;27.33;;;;;;;;5060964;28;45564;-80
2023/12/17 13:55:15;;;;;;;;;31.33;30.00;;;;;;;;5078451;28;45425;-80
2023/12/17 13:57:41;;;;;;;;;24.00;24.00;;;;;;;;5079119;27;45320;-81
2023/12/17 14:00:06;;;;;;;;;26.33;25.33;;;;;;;;5077843;28;45442;-80
2023/12/17 14:02:31;;;;;;;;;28.00;28.00;;;;;;;;5079420;28;45140;-79
2023/12/17 14:04:57;;;;;;;;;28.00;26.33;;;;;;;;5077899;28;45649;-79
2023/12/17 14:07:22;;;;;;;;;27.00;25.00;;;;;;;;5058473;28;45517;-79